Time;durP1;ratioP1;P1;durP2;ratioP2;P2;SDS_P1;SDS_P2;PMS_P1;PMS_P2;Temp;Humidity;BMP_temperature;BMP_pressure;BME280_temperature;BME280_humidity;BME280_pressure;Samples;Min_cycle;Max_cycle;Signal;HPM_P1;HPM_P2
2022/01/13 00:00:07;;;;;;;42.65;13.00;;;6.00;99.90;;;;;;4922412;29;21750;-64
2022/01/13 00:02:36;;;;;;;28.42;11.00;;;6.00;99.90;;;;;;4931495;28;20062;-64
2022/01/13 00:05:02;;;;;;;41.35;14.57;;;6.00;99.90;;;;;;4928581;28;20048;-64
2022/01/13 00:07:28;;;;;;;36.88;9.43;;;6.00;99.90;;;;;;4948916;28;20043;-64
2022/01/13 00:09:53;;;;;;;35.53;12.05;;;6.00;99.90;;;;;;4939729;28;20040;-64
2022/01/13 00:12:21;;;;;;;45.78;16.13;;;6.00;99.90;;;;;;4945539;28;20520;-64
2022/01/13 00:17:45;;;;;;;73.43;24.38;;;6.00;99.90;;;;;;4947271;28;20461;-64
2022/01/13 00:25:28;;;;;;;32.50;13.23;;;6.00;99.90;;;;;;4901698;29;20090;-64
2022/01/13 00:27:58;;;;;;;29.10;11.95;;;6.00;99.90;;;;;;4948973;28;20087;-64
2022/01/13 00:30:26;;;;;;;26.17;9.32;;;6.00;99.90;;;;;;4931250;29;20619;-64
2022/01/13 00:32:51;;;;;;;18.63;6.88;;;6.00;99.90;;;;;;4948485;28;20498;-64
2022/01/13 00:35:17;;;;;;;42.03;14.18;;;6.00;99.90;;;;;;4929711;29;20086;-64
2022/01/13 00:37:43;;;;;;;32.08;11.57;;;6.00;99.90;;;;;;4948781;28;20035;-64
2022/01/13 00:40:11;;;;;;;42.08;13.82;;;6.00;99.90;;;;;;4931008;29;20074;-64
2022/01/13 00:42:37;;;;;;;32.47;10.65;;;6.00;99.90;;;;;;4948049;28;20053;-64
2022/01/13 00:45:05;;;;;;;53.67;16.73;;;6.00;99.90;;;;;;4931286;29;20047;-64
2022/01/13 00:47:31;;;;;;;61.75;21.38;;;6.00;99.90;;;;;;4947315;28;20095;-64
2022/01/13 00:49:57;;;;;;;12.98;6.32;;;6.00;99.90;;;;;;4951232;28;20453;-64
2022/01/13 00:52:26;;;;;;;47.67;17.13;;;6.00;99.90;;;;;;4936067;29;20114;-64
2022/01/13 00:54:53;;;;;;;40.67;14.52;;;6.00;99.90;;;;;;4950549;28;20427;-64
2022/01/13 00:57:19;;;;;;;48.90;14.05;;;6.00;99.90;;;;;;4936439;29;20051;-64
2022/01/13 00:59:45;;;;;;;42.72;14.73;;;6.00;99.90;;;;;;4954979;28;20039;-64
2022/01/13 01:02:10;;;;;;;50.75;16.83;;;6.00;99.90;;;;;;4952884;28;20051;-64
2022/01/13 01:04:36;;;;;;;40.22;12.32;;;6.00;99.90;;;;;;4952056;28;20075;-64
2022/01/13 01:07:02;;;;;;;56.67;17.35;;;6.00;99.90;;;;;;4955030;28;20047;-64
2022/01/13 01:09:47;;;;;;;55.90;18.70;;;6.00;99.90;;;;;;4932615;29;20398;-64
2022/01/13 01:12:16;;;;;;;35.60;13.85;;;6.00;99.90;;;;;;4938119;29;20823;-64
2022/01/13 01:14:47;;;;;;;39.42;13.65;;;5.90;99.90;;;;;;4953940;28;20071;-64
2022/01/13 01:17:16;;;;;;;32.13;12.85;;;5.90;99.90;;;;;;4954220;28;20490;-64
2022/01/13 01:19:48;;;;;;;39.85;13.30;;;5.90;99.90;;;;;;4941243;28;20394;-64
2022/01/13 01:27:41;;;;;;;63.83;17.52;;;5.90;99.90;;;;;;4938343;29;20410;-64
2022/01/13 01:30:44;;;;;;;67.88;19.48;;;5.90;99.90;;;;;;4952854;28;20098;-64
2022/01/13 01:33:00;;;;;;;33.05;11.43;;;5.80;99.90;;;;;;4950549;28;20141;-64
2022/01/13 01:35:27;;;;;;;24.13;8.88;;;5.80;99.90;;;;;;4946989;28;20071;-64
2022/01/13 01:37:53;;;;;;;49.40;16.05;;;5.80;99.90;;;;;;4935530;29;20051;-64
2022/01/13 01:40:20;;;;;;;39.15;12.25;;;5.80;99.90;;;;;;4953080;28;20405;-64
2022/01/13 01:42:47;;;;;;;49.53;14.10;;;5.80;99.90;;;;;;4954728;28;20126;-64
2022/01/13 01:45:14;;;;;;;65.22;17.83;;;5.80;99.90;;;;;;4936701;28;20129;-64
2022/01/13 01:47:42;;;;;;;42.13;14.02;;;5.80;99.90;;;;;;4932120;29;20529;-64
2022/01/13 01:50:18;;;;;;;32.85;10.52;;;5.70;99.90;;;;;;4950203;28;20051;-64
2022/01/13 01:52:45;;;;;;;52.97;16.90;;;5.70;99.90;;;;;;4911794;29;20043;-64
2022/01/13 01:55:11;;;;;;;40.90;12.20;;;5.70;99.90;;;;;;4949868;28;20051;-64
2022/01/13 01:57:37;;;;;;;44.83;14.45;;;5.70;99.90;;;;;;4953000;28;20039;-64
2022/01/13 02:00:10;;;;;;;44.22;13.77;;;5.70;99.90;;;;;;4918079;29;20439;-64
2022/01/13 02:02:43;;;;;;;48.70;14.52;;;5.70;99.90;;;;;;4946432;28;20047;-64
2022/01/13 02:05:10;;;;;;;54.28;15.18;;;5.60;99.90;;;;;;4950382;28;20051;-64
2022/01/13 02:07:36;;;;;;;81.80;16.83;;;5.70;99.90;;;;;;4950867;28;20055;-64
2022/01/13 02:10:03;;;;;;;37.72;10.57;;;5.70;99.90;;;;;;4944444;28;20457;-64
2022/01/13 02:12:36;;;;;;;57.75;11.27;;;5.60;99.90;;;;;;4950810;28;20490;-64
2022/01/13 02:17:39;;;;;;;41.95;13.13;;;5.60;99.90;;;;;;4950523;28;20059;-64
2022/01/13 02:20:07;;;;;;;64.05;13.85;;;5.60;99.90;;;;;;4951099;28;20489;-64
2022/01/13 02:22:33;;;;;;;77.10;14.80;;;5.50;99.90;;;;;;4932636;28;20083;-64
2022/01/13 02:24:59;;;;;;;59.88;13.95;;;5.50;99.90;;;;;;4951156;28;20528;-64
2022/01/13 02:27:25;;;;;;;35.67;8.55;;;5.50;99.90;;;;;;4949150;28;20078;-64
2022/01/13 02:29:51;;;;;;;44.50;12.90;;;5.50;99.90;;;;;;4950557;28;20051;-64
2022/01/13 02:32:17;;;;;;;34.72;10.45;;;5.50;99.90;;;;;;4916853;29;20082;-63
2022/01/13 02:34:43;;;;;;;39.67;10.90;;;5.50;99.90;;;;;;4950310;28;20474;-64
2022/01/13 02:37:10;;;;;;;56.15;12.68;;;5.50;99.90;;;;;;4951020;28;20047;-64
2022/01/13 02:39:36;;;;;;;38.70;11.73;;;5.50;99.90;;;;;;4948654;28;20047;-64
2022/01/13 02:42:11;;;;;;;53.45;13.77;;;5.50;99.90;;;;;;4950773;28;20035;-64
2022/01/13 02:44:47;;;;;;;59.08;13.57;;;5.50;99.90;;;;;;4949078;28;20048;-64
2022/01/13 02:47:36;;;;;;;45.35;10.50;;;5.50;99.90;;;;;;4951185;28;20042;-64
2022/01/13 02:50:04;;;;;;;75.20;14.80;;;5.50;99.90;;;;;;4949923;28;20417;-64
2022/01/13 02:52:30;;;;;;;72.78;16.98;;;5.50;99.90;;;;;;4931986;29;20106;-64
2022/01/13 02:54:56;;;;;;;79.65;17.15;;;5.60;99.90;;;;;;4950371;28;20490;-64
2022/01/13 02:57:21;;;;;;;83.22;17.60;;;5.50;99.90;;;;;;4949277;28;20098;-64
2022/01/13 02:59:47;;;;;;;55.90;14.43;;;5.50;99.90;;;;;;4949883;28;20109;-64
2022/01/13 03:02:13;;;;;;;87.43;19.98;;;5.50;99.90;;;;;;4949397;28;20447;-64
2022/01/13 03:04:46;;;;;;;56.38;17.92;;;5.50;99.90;;;;;;4913962;29;20040;-64
2022/01/13 03:07:11;;;;;;;60.08;14.75;;;5.50;99.90;;;;;;4949121;28;20043;-64
2022/01/13 03:09:37;;;;;;;49.17;16.55;;;5.50;99.90;;;;;;4925026;29;20042;-64
2022/01/13 03:12:03;;;;;;;46.53;14.85;;;5.50;99.90;;;;;;4926256;29;20047;-64
2022/01/13 03:14:29;;;;;;;42.08;13.93;;;5.50;99.90;;;;;;4948163;28;20042;-64
2022/01/13 03:16:55;;;;;;;26.92;8.48;;;5.40;99.90;;;;;;4950200;28;20488;-64
2022/01/13 03:19:22;;;;;;;75.82;16.38;;;5.40;99.90;;;;;;4948273;28;20106;-64
2022/01/13 03:21:48;;;;;;;110.97;18.67;;;5.50;99.90;;;;;;4901065;29;20066;-64
2022/01/13 03:24:14;;;;;;;83.57;18.67;;;5.40;99.90;;;;;;4949081;28;20085;-64
2022/01/13 03:26:42;;;;;;;94.05;17.92;;;5.40;99.90;;;;;;4948731;28;20488;-64
2022/01/13 03:31:37;;;;;;;75.40;16.35;;;5.40;99.90;;;;;;4927738;29;20126;-64
2022/01/13 03:34:03;;;;;;;43.25;13.20;;;5.40;99.90;;;;;;4942394;28;20381;-64
2022/01/13 03:36:29;;;;;;;98.28;18.45;;;5.40;99.90;;;;;;4947929;28;20039;-64
2022/01/13 03:38:54;;;;;;;71.80;16.92;;;5.40;99.90;;;;;;4949665;28;20102;-64
2022/01/13 03:41:21;;;;;;;49.15;13.63;;;5.40;99.90;;;;;;4948786;28;20051;-64
2022/01/13 03:43:54;;;;;;;70.47;15.70;;;5.40;99.90;;;;;;4949128;28;20043;-64
2022/01/13 03:46:20;;;;;;;76.28;16.85;;;5.50;99.90;;;;;;4949459;28;20402;-64
2022/01/13 03:48:46;;;;;;;73.53;17.42;;;5.40;99.90;;;;;;4948044;28;20043;-64
2022/01/13 03:51:12;;;;;;;73.00;16.23;;;5.40;99.90;;;;;;4932215;29;20402;-64
2022/01/13 03:53:38;;;;;;;68.15;15.50;;;5.40;99.90;;;;;;4947725;28;20039;-64
2022/01/13 03:56:25;;;;;;;76.75;16.23;;;5.50;99.90;;;;;;4949395;28;20043;-64
2022/01/13 03:59:25;;;;;;;61.35;17.00;;;5.50;99.90;;;;;;4935201;28;20043;-64
2022/01/13 04:02:07;;;;;;;91.90;18.37;;;5.50;99.90;;;;;;4947661;28;20486;-64
2022/01/13 04:04:52;;;;;;;61.38;15.52;;;5.50;99.90;;;;;;4949604;28;20054;-64
2022/01/13 04:07:21;;;;;;;37.65;11.88;;;5.50;99.90;;;;;;4912058;29;20047;-64
2022/01/13 04:09:46;;;;;;;22.17;7.53;;;5.50;99.90;;;;;;4933176;28;20039;-64
2022/01/13 04:12:14;;;;;;;41.03;13.05;;;5.50;99.90;;;;;;4943641;28;20046;-64
2022/01/13 04:17:07;;;;;;;40.90;14.05;;;5.50;99.90;;;;;;4932019;29;20503;-64
2022/01/13 04:19:33;;;;;;;56.95;13.60;;;5.50;99.90;;;;;;4947432;28;20049;-64
2022/01/13 04:21:59;;;;;;;49.10;16.00;;;5.50;99.90;;;;;;4931207;29;20052;-64
2022/01/13 04:24:25;;;;;;;83.30;17.58;;;5.60;99.90;;;;;;4947096;28;20051;-64
2022/01/13 04:26:53;;;;;;;72.22;15.52;;;5.50;99.90;;;;;;4948030;28;20109;-64
2022/01/13 04:29:28;;;;;;;77.22;17.38;;;5.60;99.90;;;;;;4948779;28;20042;-64
2022/01/13 04:31:53;;;;;;;112.97;17.20;;;5.60;99.90;;;;;;4947568;28;20047;-64
2022/01/13 04:34:20;;;;;;;82.75;15.10;;;5.50;99.90;;;;;;4931713;28;20054;-64
2022/01/13 04:36:46;;;;;;;102.22;16.75;;;5.50;99.90;;;;;;4947359;28;20065;-64
2022/01/13 04:39:16;;;;;;;60.45;12.32;;;5.50;99.90;;;;;;4948471;28;20541;-64
2022/01/13 04:41:45;;;;;;;57.08;13.52;;;5.50;99.90;;;;;;4947688;28;20445;-64
2022/01/13 04:44:13;;;;;;;69.00;14.57;;;5.50;99.90;;;;;;4948792;28;20058;-64
2022/01/13 04:46:39;;;;;;;129.85;20.42;;;5.50;99.90;;;;;;4948035;28;20038;-64
2022/01/13 04:49:06;;;;;;;88.30;13.98;;;5.50;99.90;;;;;;4930043;29;20134;-64
2022/01/13 04:51:32;;;;;;;69.97;13.88;;;5.50;99.90;;;;;;4963181;28;20065;-64
2022/01/13 04:53:58;;;;;;;61.67;14.07;;;5.50;99.90;;;;;;4946754;28;20047;-64
2022/01/13 04:56:52;;;;;;;59.72;15.00;;;5.50;99.90;;;;;;4931260;28;20062;-64
2022/01/13 04:59:12;;;;;;;69.97;13.75;;;5.50;99.90;;;;;;4947041;28;20078;-64
2022/01/13 05:01:38;;;;;;;68.28;13.30;;;5.40;99.90;;;;;;4947526;28;20051;-64
2022/01/13 05:04:06;;;;;;;43.95;11.00;;;5.50;99.90;;;;;;4948706;28;20046;-64
2022/01/13 05:06:32;;;;;;;82.22;13.65;;;5.50;99.90;;;;;;4929813;29;20046;-64
2022/01/13 05:08:58;;;;;;;22.65;9.68;;;5.50;99.90;;;;;;4946597;28;20046;-64
2022/01/13 05:11:24;;;;;;;72.03;14.32;;;5.50;99.90;;;;;;4938479;28;20051;-64
2022/01/13 05:13:50;;;;;;;46.15;11.93;;;5.50;99.90;;;;;;4927741;29;20079;-64
2022/01/13 05:16:33;;;;;;;62.63;14.10;;;5.50;99.90;;;;;;4947196;28;20509;-64
2022/01/13 05:22:06;;;;;;;73.13;15.07;;;5.50;99.90;;;;;;4948360;28;20059;-64
2022/01/13 05:24:30;;;;;;;53.50;13.23;;;5.50;99.90;;;;;;4946789;28;20636;-64
2022/01/13 05:26:56;;;;;;;36.65;10.23;;;5.50;99.90;;;;;;4928003;29;20043;-64
2022/01/13 05:29:22;;;;;;;44.25;10.82;;;5.50;99.90;;;;;;4926067;28;20526;-64
2022/01/13 05:31:49;;;;;;;12.75;4.60;;;5.50;99.90;;;;;;4929776;29;20043;-64
2022/01/13 05:34:16;;;;;;;61.28;14.10;;;5.50;99.90;;;;;;4947769;28;20039;-64
2022/01/13 05:36:42;;;;;;;109.03;15.70;;;5.50;99.90;;;;;;4948727;28;20039;-64
2022/01/13 05:39:10;;;;;;;64.63;12.52;;;5.50;99.90;;;;;;4951940;28;20054;-64
2022/01/13 05:41:36;;;;;;;143.15;18.52;;;5.50;99.90;;;;;;4950595;28;20039;-64
2022/01/13 05:44:02;;;;;;;171.05;21.08;;;5.50;99.90;;;;;;4931197;29;20055;-64
2022/01/13 05:46:27;;;;;;;60.63;12.30;;;5.50;99.90;;;;;;4945793;28;20043;-64
2022/01/13 05:48:56;;;;;;;101.65;15.73;;;5.50;99.90;;;;;;4949248;28;20047;-64
2022/01/13 05:51:23;;;;;;;68.82;14.15;;;5.60;99.90;;;;;;4931872;28;20044;-64
2022/01/13 05:53:49;;;;;;;56.97;12.18;;;5.50;99.90;;;;;;4950055;28;20442;-64
2022/01/13 05:56:15;;;;;;;56.83;12.85;;;5.60;99.90;;;;;;4950577;28;20050;-64
2022/01/13 05:58:41;;;;;;;17.05;8.95;;;5.50;99.90;;;;;;4934872;29;20130;-64
2022/01/13 06:01:07;;;;;;;58.97;14.68;;;5.50;99.90;;;;;;4950872;28;20050;-64
2022/01/13 06:03:33;;;;;;;50.72;11.20;;;5.60;99.90;;;;;;4949994;28;20043;-64
2022/01/13 06:05:59;;;;;;;39.20;10.07;;;5.60;99.90;;;;;;4918246;29;20372;-64
2022/01/13 06:08:25;;;;;;;21.65;9.35;;;5.60;99.90;;;;;;4950629;28;20039;-64
2022/01/13 06:10:51;;;;;;;48.35;12.63;;;5.60;99.90;;;;;;4916933;28;20126;-64
2022/01/13 06:13:17;;;;;;;42.15;11.77;;;5.60;99.90;;;;;;4951591;28;20225;-64
2022/01/13 06:15:43;;;;;;;66.72;14.75;;;5.60;99.90;;;;;;4949770;28;20051;-64
2022/01/13 06:18:16;;;;;;;47.65;10.73;;;5.60;99.90;;;;;;4933898;29;20117;-64
2022/01/13 06:20:42;;;;;;;62.72;13.55;;;5.60;99.90;;;;;;4913464;28;20070;-64
2022/01/13 06:23:10;;;;;;;27.73;7.45;;;5.60;99.90;;;;;;4951123;28;20039;-64
2022/01/13 06:25:36;;;;;;;50.75;12.30;;;5.70;99.90;;;;;;4930111;29;20115;-64
2022/01/13 06:28:03;;;;;;;38.63;8.20;;;5.70;99.90;;;;;;4948102;28;20051;-64
2022/01/13 06:30:30;;;;;;;6.10;3.63;;;5.70;99.90;;;;;;4950300;28;20050;-64
2022/01/13 06:32:56;;;;;;;26.77;6.68;;;5.70;99.90;;;;;;4948104;28;20051;-64
2022/01/13 06:35:22;;;;;;;19.52;6.55;;;5.80;99.90;;;;;;4961630;28;20047;-64
2022/01/13 06:37:48;;;;;;;66.85;15.20;;;5.80;99.90;;;;;;4949310;28;20516;-63
2022/01/13 06:40:14;;;;;;;80.25;15.88;;;5.80;99.90;;;;;;4950534;28;20451;-64
2022/01/13 06:42:40;;;;;;;11.55;6.07;;;5.80;99.90;;;;;;4951358;28;20039;-64
2022/01/13 06:45:07;;;;;;;42.28;12.70;;;5.80;99.90;;;;;;4924730;29;20156;-63
2022/01/13 06:47:33;;;;;;;46.15;12.63;;;5.80;99.90;;;;;;4949482;28;20078;-64
2022/01/13 06:49:58;;;;;;;60.65;12.55;;;5.80;99.90;;;;;;4930539;28;20083;-64
2022/01/13 06:52:24;;;;;;;66.03;15.20;;;5.80;99.90;;;;;;4950352;28;20051;-64
2022/01/13 06:54:52;;;;;;;53.83;14.27;;;5.90;99.90;;;;;;4929353;28;20059;-64
2022/01/13 06:57:19;;;;;;;91.68;16.50;;;5.90;99.90;;;;;;4933288;29;20047;-64
2022/01/13 06:59:46;;;;;;;58.67;12.55;;;5.90;99.90;;;;;;4919395;28;20078;-63
2022/01/13 07:02:12;;;;;;;42.25;13.30;;;5.90;99.90;;;;;;4950797;28;20405;-64
2022/01/13 07:04:38;;;;;;;127.32;19.90;;;5.90;99.90;;;;;;4932839;29;20043;-63
2022/01/13 07:07:04;;;;;;;42.03;12.10;;;5.90;99.90;;;;;;4931442;28;20542;-64
2022/01/13 07:09:30;;;;;;;43.97;14.57;;;5.90;99.90;;;;;;4944747;28;20043;-64
2022/01/13 07:11:55;;;;;;;27.95;11.15;;;5.90;99.90;;;;;;4923832;29;20044;-64
2022/01/13 07:14:21;;;;;;;42.08;14.15;;;5.90;99.90;;;;;;4950229;28;20043;-64
2022/01/13 07:16:48;;;;;;;58.97;16.75;;;5.90;99.90;;;;;;4928776;29;20039;-64
2022/01/13 07:19:15;;;;;;;52.78;14.15;;;5.90;99.90;;;;;;4952310;28;20122;-64
2022/01/13 07:21:42;;;;;;;45.38;14.48;;;5.90;99.90;;;;;;4931197;28;20046;-64
2022/01/13 07:24:08;;;;;;;72.68;18.83;;;6.00;99.90;;;;;;4954057;28;20118;-64
2022/01/13 07:26:34;;;;;;;40.58;15.73;;;6.00;99.90;;;;;;4934477;29;20039;-64
2022/01/13 07:29:00;;;;;;;34.47;10.65;;;6.00;99.90;;;;;;4941143;28;20079;-64
2022/01/13 07:31:27;;;;;;;54.50;16.13;;;6.00;99.90;;;;;;4948802;28;20488;-64
2022/01/13 07:33:54;;;;;;;68.78;18.35;;;6.00;99.90;;;;;;4925052;28;20051;-64
2022/01/13 07:36:21;;;;;;;42.45;12.10;;;6.00;99.90;;;;;;4952671;28;20066;-63
2022/01/13 07:38:47;;;;;;;59.00;16.42;;;6.00;99.90;;;;;;4928428;29;20058;-63
2022/01/13 07:41:12;;;;;;;54.85;16.25;;;6.00;99.90;;;;;;4931584;28;20047;-64
2022/01/13 07:43:42;;;;;;;30.40;9.70;;;6.00;99.90;;;;;;4914071;28;20038;-64
2022/01/13 07:46:08;;;;;;;25.80;11.30;;;6.10;99.90;;;;;;4949113;28;20398;-64
2022/01/13 07:48:33;;;;;;;45.30;13.68;;;6.20;99.90;;;;;;4956502;28;20303;-64
2022/01/13 07:50:59;;;;;;;50.63;16.10;;;6.10;99.90;;;;;;4949940;28;20047;-64
2022/01/13 07:53:25;;;;;;;38.80;14.98;;;6.10;99.90;;;;;;4951558;28;20054;-64
2022/01/13 07:55:51;;;;;;;32.70;8.55;;;6.10;99.90;;;;;;4947986;28;20055;-63
2022/01/13 07:58:17;;;;;;;115.03;29.80;;;6.10;99.90;;;;;;4932218;28;20474;-63
2022/01/13 08:00:42;;;;;;;52.17;16.33;;;6.10;99.90;;;;;;4945674;28;20047;-63
2022/01/13 08:03:08;;;;;;;75.80;22.15;;;6.20;99.90;;;;;;4930364;29;20358;-64
2022/01/13 08:05:34;;;;;;;44.67;15.10;;;6.20;99.90;;;;;;4916225;28;20077;-64
2022/01/13 08:08:00;;;;;;;46.92;14.85;;;6.20;99.90;;;;;;4956091;28;20126;-64
2022/01/13 08:10:26;;;;;;;39.97;11.95;;;6.20;99.90;;;;;;4949189;28;20042;-63
2022/01/13 08:12:51;;;;;;;22.23;9.13;;;6.20;99.90;;;;;;4947260;28;20066;-64
2022/01/13 08:15:17;;;;;;;46.03;13.18;;;6.20;99.90;;;;;;4948451;28;20035;-64
2022/01/13 08:20:30;;;;;;;43.28;13.25;;;6.20;99.90;;;;;;4923653;29;20126;-63
2022/01/13 08:22:56;;;;;;;52.20;18.73;;;6.20;99.90;;;;;;4942579;28;20446;-64
2022/01/13 08:25:23;;;;;;;33.15;11.98;;;6.30;99.90;;;;;;4942909;28;20074;-64
2022/01/13 08:27:49;;;;;;;41.40;14.60;;;6.30;99.90;;;;;;4946679;28;20090;-64
2022/01/13 08:30:15;;;;;;;45.83;17.55;;;6.30;99.90;;;;;;4945352;28;20039;-63
2022/01/13 08:32:41;;;;;;;43.90;12.25;;;6.30;99.90;;;;;;4948185;28;20082;-64
2022/01/13 08:35:08;;;;;;;28.83;10.93;;;6.30;99.90;;;;;;4930651;29;20483;-64
2022/01/13 08:37:34;;;;;;;36.63;12.00;;;6.40;99.90;;;;;;4913958;28;20055;-64
2022/01/13 08:40:02;;;;;;;22.50;6.82;;;6.40;99.90;;;;;;4948207;28;20055;-64
2022/01/13 08:42:27;;;;;;;17.48;7.65;;;6.40;99.90;;;;;;4947259;28;20094;-63
2022/01/13 08:44:53;;;;;;;54.60;15.40;;;6.40;99.90;;;;;;4899416;28;20046;-64
2022/01/13 08:47:19;;;;;;;56.92;18.70;;;6.40;99.90;;;;;;4927831;29;20047;-64
2022/01/13 08:49:46;;;;;;;44.75;13.75;;;6.40;99.90;;;;;;4927637;28;20059;-64
2022/01/13 08:52:11;;;;;;;11.95;5.82;;;6.40;99.90;;;;;;4944628;28;20102;-64
2022/01/13 08:54:37;;;;;;;50.78;16.58;;;6.40;99.90;;;;;;4928459;29;20442;-64
2022/01/13 08:57:06;;;;;;;39.78;13.52;;;6.40;99.90;;;;;;4929345;29;20047;-63
2022/01/13 08:59:32;;;;;;;27.95;10.48;;;6.40;99.90;;;;;;4944685;28;20047;-64
2022/01/13 09:01:58;;;;;;;14.38;6.63;;;6.40;99.90;;;;;;4928942;29;20111;-64
2022/01/13 09:04:24;;;;;;;45.17;16.80;;;6.40;99.90;;;;;;4927871;29;20086;-64
2022/01/13 09:06:50;;;;;;;75.75;23.50;;;6.40;99.90;;;;;;4947833;28;20778;-64
2022/01/13 09:09:17;;;;;;;48.50;17.60;;;6.50;99.90;;;;;;4945566;28;20178;-63
2022/01/13 09:11:44;;;;;;;46.25;15.30;;;6.40;99.90;;;;;;4930993;29;20446;-64
2022/01/13 09:14:10;;;;;;;45.88;13.13;;;6.50;99.90;;;;;;4951294;28;20053;-64
2022/01/13 09:16:43;;;;;;;35.17;14.25;;;6.50;99.90;;;;;;4933862;29;20039;-63
2022/01/13 09:19:11;;;;;;;14.27;6.38;;;6.50;99.90;;;;;;4956722;28;20441;-63
2022/01/13 09:21:39;;;;;;;44.45;16.77;;;6.50;99.90;;;;;;4953942;28;20413;-64
2022/01/13 09:24:08;;;;;;;19.17;7.70;;;6.50;99.90;;;;;;4958585;28;20039;-64
2022/01/13 09:26:34;;;;;;;60.92;21.77;;;6.50;99.90;;;;;;4953544;28;20047;-64
2022/01/13 09:28:59;;;;;;;64.18;19.70;;;6.50;99.90;;;;;;4936446;28;20170;-64
2022/01/13 09:31:26;;;;;;;33.08;12.48;;;6.50;99.90;;;;;;4954503;28;20046;-63
2022/01/13 09:33:53;;;;;;;50.55;14.20;;;6.60;99.90;;;;;;4930461;28;20114;-63
2022/01/13 09:36:20;;;;;;;51.03;17.48;;;6.50;99.90;;;;;;4951647;28;20079;-64
2022/01/13 09:38:45;;;;;;;37.35;13.88;;;6.50;99.90;;;;;;4949979;28;20046;-64
2022/01/13 09:41:13;;;;;;;45.83;16.23;;;6.50;99.90;;;;;;4948954;28;20035;-64
2022/01/13 09:43:44;;;;;;;50.33;20.58;;;6.50;99.90;;;;;;4948529;28;20054;-64
2022/01/13 09:46:11;;;;;;;54.65;18.65;;;6.60;99.90;;;;;;4932581;28;20505;-64
2022/01/13 09:48:41;;;;;;;41.10;14.63;;;6.60;99.90;;;;;;4945338;28;20118;-64
2022/01/13 09:51:07;;;;;;;;;;;6.60;99.90;;;;;;4910517;28;20474;-64
2022/01/13 09:53:34;;;;;;;44.05;14.82;;;6.60;99.90;;;;;;4940861;28;20035;-64
2022/01/13 09:56:00;;;;;;;41.05;15.82;;;6.60;99.90;;;;;;4950877;28;20153;-64
2022/01/13 09:58:26;;;;;;;52.63;19.85;;;6.60;99.90;;;;;;4945511;28;20097;-64
2022/01/13 10:00:52;;;;;;;40.13;12.60;;;6.60;99.90;;;;;;4946532;28;20054;-64
2022/01/13 10:03:25;;;;;;;43.35;17.35;;;6.50;99.90;;;;;;4912105;28;20039;-64
2022/01/13 10:06:07;;;;;;;48.15;16.00;;;6.50;99.90;;;;;;4930410;29;20051;-64
2022/01/13 10:08:51;;;;;;;41.05;15.98;;;6.50;99.90;;;;;;4933069;28;20697;-64
2022/01/13 10:11:37;;;;;;;30.83;11.88;;;6.50;99.90;;;;;;4938001;28;20047;-63
2022/01/13 10:16:56;;;;;;;41.05;13.07;;;6.60;99.90;;;;;;4931144;29;20513;-64
2022/01/13 10:19:30;;;;;;;47.28;16.58;;;6.50;99.90;;;;;;4947608;28;20039;-64
2022/01/13 10:22:01;;;;;;;59.28;19.48;;;6.50;99.90;;;;;;4928947;28;20051;-64
2022/01/13 10:24:29;;;;;;;51.25;16.23;;;6.60;99.90;;;;;;4947636;28;20116;-64
2022/01/13 10:27:04;;;;;;;48.58;16.27;;;6.50;99.90;;;;;;4913794;29;20083;-64
2022/01/13 10:29:44;;;;;;;33.72;13.13;;;6.50;99.90;;;;;;4942805;28;20078;-63
2022/01/13 10:32:13;;;;;;;28.50;11.85;;;6.50;99.90;;;;;;4930197;29;20047;-64
2022/01/13 10:34:42;;;;;;;50.70;18.90;;;6.50;99.90;;;;;;4946888;28;20047;-64
2022/01/13 10:37:35;;;;;;;17.90;7.68;;;6.50;99.90;;;;;;4930310;28;20122;-64
2022/01/13 10:40:07;;;;;;;24.55;10.05;;;6.50;99.90;;;;;;4945855;28;20055;-64
2022/01/13 10:44:59;;;;;;;37.65;11.10;;;6.50;99.90;;;;;;4948132;28;20040;-64
2022/01/13 10:47:30;;;;;;;26.33;11.25;;;6.50;99.90;;;;;;4947135;28;20039;-64
2022/01/13 10:50:02;;;;;;;41.75;15.88;;;6.60;99.90;;;;;;4928301;29;20083;-64
2022/01/13 10:52:28;;;;;;;23.10;11.98;;;6.60;99.90;;;;;;4946651;28;20057;-64
2022/01/13 10:55:06;;;;;;;28.45;12.95;;;6.70;99.90;;;;;;4930450;28;20040;-64
2022/01/13 10:57:33;;;;;;;31.35;14.57;;;6.60;99.90;;;;;;4946456;28;20050;-63
2022/01/13 11:00:00;;;;;;;39.58;15.80;;;6.60;99.90;;;;;;4946496;28;20053;-64
2022/01/13 11:02:27;;;;;;;37.70;13.02;;;6.70;99.90;;;;;;4922425;29;20047;-63
2022/01/13 11:04:53;;;;;;;32.85;13.90;;;6.70;99.90;;;;;;4897926;28;20418;-64
2022/01/13 11:07:23;;;;;;;50.42;17.80;;;6.80;99.90;;;;;;4923438;29;20122;-64
2022/01/13 11:09:54;;;;;;;45.20;18.33;;;6.80;99.90;;;;;;4944545;28;20050;-64
2022/01/13 11:12:58;;;;;;;44.33;15.73;;;6.80;99.90;;;;;;4950587;28;20055;-63
2022/01/13 11:15:25;;;;;;;23.92;8.45;;;6.90;99.90;;;;;;4923485;28;20062;-63
2022/01/13 11:17:56;;;;;;;42.65;17.20;;;6.80;99.90;;;;;;4927742;28;20083;-64
2022/01/13 11:20:23;;;;;;;25.95;11.00;;;6.80;99.90;;;;;;4928422;29;20039;-64
2022/01/13 11:22:51;;;;;;;36.30;14.30;;;6.80;99.90;;;;;;4917046;28;20070;-64
2022/01/13 11:25:19;;;;;;;48.15;16.85;;;6.90;99.90;;;;;;4929673;29;20051;-64
2022/01/13 11:27:45;;;;;;;45.03;20.20;;;6.90;99.90;;;;;;4946549;28;20043;-64
2022/01/13 11:30:17;;;;;;;39.97;14.60;;;6.90;99.90;;;;;;4948090;28;20369;-64
2022/01/13 11:32:45;;;;;;;22.63;8.10;;;6.90;99.90;;;;;;4944925;28;20225;-64
2022/01/13 11:35:14;;;;;;;33.35;15.63;;;6.90;99.90;;;;;;4946229;28;20054;-63
2022/01/13 11:37:40;;;;;;;14.90;6.90;;;6.90;99.90;;;;;;4949397;28;20054;-63
2022/01/13 11:40:28;;;;;;;19.55;7.72;;;6.90;99.90;;;;;;4948292;28;20094;-63
2022/01/13 11:43:00;;;;;;;39.47;10.75;;;6.90;99.90;;;;;;4914435;28;20043;-64
2022/01/13 11:45:28;;;;;;;21.17;8.13;;;6.90;99.90;;;;;;4945191;28;20046;-63
2022/01/13 11:48:18;;;;;;;33.47;14.82;;;6.90;99.90;;;;;;4944468;28;20490;-64
2022/01/13 11:50:52;;;;;;;20.50;10.55;;;6.80;99.90;;;;;;4944450;28;20051;-63
2022/01/13 11:53:32;;;;;;;27.63;14.27;;;6.80;99.90;;;;;;4944423;28;20052;-64
2022/01/13 11:56:07;;;;;;;31.65;14.43;;;6.80;99.90;;;;;;4943751;28;20039;-63
2022/01/13 11:58:42;;;;;;;37.25;14.63;;;6.80;99.90;;;;;;4946521;28;20047;-64
2022/01/13 12:01:17;;;;;;;32.30;15.80;;;6.80;99.90;;;;;;4942969;28;20083;-63
2022/01/13 12:03:48;;;;;;;49.85;18.25;;;6.80;99.90;;;;;;4944474;28;20046;-64
2022/01/13 12:06:39;;;;;;;46.65;18.73;;;6.80;99.90;;;;;;4944970;28;20094;-64
2022/01/13 12:09:33;;;;;;;47.75;20.67;;;6.80;99.90;;;;;;4939658;28;20055;-63
2022/01/13 12:11:59;;;;;;;31.23;15.48;;;6.80;99.90;;;;;;4939854;28;20070;-64
2022/01/13 12:14:26;;;;;;;49.28;19.85;;;6.80;99.90;;;;;;4927286;29;20516;-64
2022/01/13 12:16:52;;;;;;;36.10;16.63;;;6.80;99.90;;;;;;4929512;29;20051;-64
2022/01/13 12:19:28;;;;;;;38.42;16.52;;;6.80;99.90;;;;;;4945775;28;20410;-63
2022/01/13 12:22:06;;;;;;;26.40;11.35;;;6.80;99.90;;;;;;4928425;29;20415;-64
2022/01/13 12:24:54;;;;;;;30.23;12.05;;;6.90;99.90;;;;;;4944627;28;20051;-63
2022/01/13 12:27:44;;;;;;;20.58;9.77;;;6.90;99.90;;;;;;4945358;28;20046;-63
2022/01/13 12:30:16;;;;;;;43.60;15.10;;;6.90;99.90;;;;;;4929724;29;20138;-64
2022/01/13 12:32:50;;;;;;;44.80;17.35;;;6.90;99.90;;;;;;4946640;28;20400;-64
2022/01/13 12:35:34;;;;;;;24.65;8.50;;;6.90;99.90;;;;;;4944998;28;20098;-64
2022/01/13 12:38:13;;;;;;;23.10;10.75;;;6.90;99.90;;;;;;4946123;28;20406;-64
2022/01/13 12:40:45;;;;;;;32.33;14.75;;;6.90;99.90;;;;;;4942260;28;20035;-63
2022/01/13 12:46:12;;;;;;;31.30;14.27;;;6.90;99.90;;;;;;4931634;28;20099;-64
2022/01/13 12:48:40;;;;;;;25.00;10.60;;;6.90;99.90;;;;;;4933827;28;20158;-64
2022/01/13 12:51:06;;;;;;;50.58;18.65;;;6.90;99.90;;;;;;4926186;29;20044;-63
2022/01/13 12:53:36;;;;;;;45.78;21.35;;;7.00;99.90;;;;;;4923531;29;20043;-64
2022/01/13 12:56:30;;;;;;;50.17;22.50;;;7.00;99.90;;;;;;4927131;29;20522;-63
2022/01/13 12:59:01;;;;;;;43.78;18.35;;;7.00;99.90;;;;;;4921622;29;20051;-64
2022/01/13 13:01:32;;;;;;;20.13;10.70;;;7.00;99.90;;;;;;4921357;29;20032;-64
2022/01/13 13:04:07;;;;;;;18.80;9.20;;;7.00;99.90;;;;;;4926568;29;20040;-64
2022/01/13 13:06:35;;;;;;;34.20;13.85;;;7.10;99.90;;;;;;4926263;29;20058;-64
2022/01/13 13:09:19;;;;;;;39.25;16.77;;;7.20;99.90;;;;;;4922327;29;20515;-64
2022/01/13 13:11:55;;;;;;;33.88;13.50;;;7.20;99.90;;;;;;4925572;29;20613;-64
2022/01/13 13:14:32;;;;;;;29.30;13.07;;;7.20;99.90;;;;;;4931418;29;20050;-64
2022/01/13 13:16:58;;;;;;;37.85;17.83;;;7.20;99.90;;;;;;4926414;29;20055;-64
2022/01/13 13:19:24;;;;;;;39.80;17.88;;;7.20;99.90;;;;;;4929953;29;20034;-63
2022/01/13 13:21:52;;;;;;;18.80;10.25;;;7.20;99.90;;;;;;4928403;29;20049;-64